sensor_id;sensor_type;location;lat;lon;timestamp;temperature;humidity
2749;DHT22;1382;52.142;11.618;2022-09-01T00:00:57;20.70;40.40
2749;DHT22;1382;52.142;11.618;2022-09-01T00:03:24;20.70;40.10
2749;DHT22;1382;52.142;11.618;2022-09-01T00:05:52;20.70;40.00
2749;DHT22;1382;52.142;11.618;2022-09-01T00:08:19;20.80;40.40
2749;DHT22;1382;52.142;11.618;2022-09-01T00:10:46;20.70;40.60
2749;DHT22;1382;52.142;11.618;2022-09-01T00:13:14;20.70;40.50
2749;DHT22;1382;52.142;11.618;2022-09-01T00:15:41;20.60;40.50
2749;DHT22;1382;52.142;11.618;2022-09-01T00:18:09;20.60;40.90
2749;DHT22;1382;52.142;11.618;2022-09-01T00:20:35;20.60;40.90
2749;DHT22;1382;52.142;11.618;2022-09-01T00:23:02;20.60;41.10
2749;DHT22;1382;52.142;11.618;2022-09-01T00:25:29;20.60;41.40
2749;DHT22;1382;52.142;11.618;2022-09-01T00:27:56;20.60;40.70
2749;DHT22;1382;52.142;11.618;2022-09-01T00:30:24;20.50;40.10
2749;DHT22;1382;52.142;11.618;2022-09-01T00:32:51;20.50;40.50
2749;DHT22;1382;52.142;11.618;2022-09-01T00:35:19;20.50;40.40
2749;DHT22;1382;52.142;11.618;2022-09-01T00:37:46;20.50;40.70
2749;DHT22;1382;52.142;11.618;2022-09-01T00:40:15;20.40;40.80
2749;DHT22;1382;52.142;11.618;2022-09-01T00:42:42;20.40;41.00
2749;DHT22;1382;52.142;11.618;2022-09-01T00:45:10;20.40;40.70
2749;DHT22;1382;52.142;11.618;2022-09-01T00:47:38;20.30;41.00
2749;DHT22;1382;52.142;11.618;2022-09-01T00:50:06;20.30;41.10
2749;DHT22;1382;52.142;11.618;2022-09-01T00:52:36;20.30;41.20
2749;DHT22;1382;52.142;11.618;2022-09-01T00:55:08;20.20;41.80
2749;DHT22;1382;52.142;11.618;2022-09-01T00:57:35;20.20;41.90
2749;DHT22;1382;52.142;11.618;2022-09-01T01:00:06;20.40;42.30
2749;DHT22;1382;52.142;11.618;2022-09-01T01:02:33;20.20;41.90
2749;DHT22;1382;52.142;11.618;2022-09-01T01:05:04;20.10;41.80
2749;DHT22;1382;52.142;11.618;2022-09-01T01:07:31;20.10;41.10
2749;DHT22;1382;52.142;11.618;2022-09-01T01:09:58;20.10;41.30
2749;DHT22;1382;52.142;11.618;2022-09-01T01:12:26;20.10;41.40
2749;DHT22;1382;52.142;11.618;2022-09-01T01:14:52;20.00;42.50
2749;DHT22;1382;52.142;11.618;2022-09-01T01:17:21;20.10;43.50
2749;DHT22;1382;52.142;11.618;2022-09-01T01:19:50;20.00;43.20
2749;DHT22;1382;52.142;11.618;2022-09-01T01:22:23;20.00;43.00
2749;DHT22;1382;52.142;11.618;2022-09-01T01:24:54;20.00;42.90
2749;DHT22;1382;52.142;11.618;2022-09-01T01:27:22;19.90;43.10
2749;DHT22;1382;52.142;11.618;2022-09-01T01:29:49;19.90;43.30
2749;DHT22;1382;52.142;11.618;2022-09-01T01:32:16;19.90;43.20
2749;DHT22;1382;52.142;11.618;2022-09-01T01:34:43;19.80;43.40
2749;DHT22;1382;52.142;11.618;2022-09-01T01:37:10;19.90;43.50
2749;DHT22;1382;52.142;11.618;2022-09-01T01:39:37;19.80;43.20
2749;DHT22;1382;52.142;11.618;2022-09-01T01:42:06;19.80;43.00
2749;DHT22;1382;52.142;11.618;2022-09-01T01:44:32;19.80;43.00
2749;DHT22;1382;52.142;11.618;2022-09-01T01:46:59;19.70;42.60
2749;DHT22;1382;52.142;11.618;2022-09-01T01:49:27;19.70;42.30
2749;DHT22;1382;52.142;11.618;2022-09-01T01:51:54;19.70;43.30
2749;DHT22;1382;52.142;11.618;2022-09-01T01:54:21;19.80;42.60
2749;DHT22;1382;52.142;11.618;2022-09-01T01:56:48;19.60;42.20
2749;DHT22;1382;52.142;11.618;2022-09-01T01:59:16;19.60;43.00
2749;DHT22;1382;52.142;11.618;2022-09-01T02:01:44;19.60;43.30
2749;DHT22;1382;52.142;11.618;2022-09-01T02:04:11;19.60;43.70
2749;DHT22;1382;52.142;11.618;2022-09-01T02:06:37;19.60;42.50
2749;DHT22;1382;52.142;11.618;2022-09-01T02:09:04;19.50;43.20
2749;DHT22;1382;52.142;11.618;2022-09-01T02:11:31;19.50;43.10
2749;DHT22;1382;52.142;11.618;2022-09-01T02:13:59;19.50;43.30
2749;DHT22;1382;52.142;11.618;2022-09-01T02:16:29;19.50;43.70
2749;DHT22;1382;52.142;11.618;2022-09-01T02:18:57;19.50;44.40
2749;DHT22;1382;52.142;11.618;2022-09-01T02:21:25;19.50;43.40
2749;DHT22;1382;52.142;11.618;2022-09-01T02:23:54;19.50;44.30
2749;DHT22;1382;52.142;11.618;2022-09-01T02:26:21;19.40;45.10
2749;DHT22;1382;52.142;11.618;2022-09-01T02:28:48;19.40;44.80
2749;DHT22;1382;52.142;11.618;2022-09-01T02:31:22;19.40;44.40
2749;DHT22;1382;52.142;11.618;2022-09-01T02:33:51;19.40;44.90
2749;DHT22;1382;52.142;11.618;2022-09-01T02:36:18;19.40;44.00
2749;DHT22;1382;52.142;11.618;2022-09-01T02:38:46;19.40;44.60
2749;DHT22;1382;52.142;11.618;2022-09-01T02:41:21;19.40;44.00
2749;DHT22;1382;52.142;11.618;2022-09-01T02:43:47;19.40;45.10
2749;DHT22;1382;52.142;11.618;2022-09-01T02:46:15;19.40;44.60
2749;DHT22;1382;52.142;11.618;2022-09-01T02:48:43;19.40;44.80
2749;DHT22;1382;52.142;11.618;2022-09-01T02:51:14;19.50;44.80
2749;DHT22;1382;52.142;11.618;2022-09-01T02:53:43;19.40;44.10
2749;DHT22;1382;52.142;11.618;2022-09-01T02:56:11;19.40;44.30
2749;DHT22;1382;52.142;11.618;2022-09-01T02:58:39;19.40;44.60
2749;DHT22;1382;52.142;11.618;2022-09-01T03:01:12;19.30;44.80
2749;DHT22;1382;52.142;11.618;2022-09-01T03:03:39;19.40;44.80
2749;DHT22;1382;52.142;11.618;2022-09-01T03:06:06;19.30;44.00
2749;DHT22;1382;52.142;11.618;2022-09-01T03:08:34;19.30;43.70
2749;DHT22;1382;52.142;11.618;2022-09-01T03:11:01;19.30;42.50
2749;DHT22;1382;52.142;11.618;2022-09-01T03:13:28;19.50;43.10
2749;DHT22;1382;52.142;11.618;2022-09-01T03:15:55;19.50;42.80
2749;DHT22;1382;52.142;11.618;2022-09-01T03:18:22;19.30;42.80
2749;DHT22;1382;52.142;11.618;2022-09-01T03:20:48;19.30;42.80
2749;DHT22;1382;52.142;11.618;2022-09-01T03:23:16;19.30;42.70
2749;DHT22;1382;52.142;11.618;2022-09-01T03:25:46;19.30;42.50
2749;DHT22;1382;52.142;11.618;2022-09-01T03:28:14;19.30;43.00
2749;DHT22;1382;52.142;11.618;2022-09-01T03:30:44;19.30;43.00
2749;DHT22;1382;52.142;11.618;2022-09-01T03:33:12;19.30;43.50
2749;DHT22;1382;52.142;11.618;2022-09-01T03:35:39;19.30;43.00
2749;DHT22;1382;52.142;11.618;2022-09-01T03:38:05;19.30;43.50
2749;DHT22;1382;52.142;11.618;2022-09-01T03:40:34;19.30;43.30
2749;DHT22;1382;52.142;11.618;2022-09-01T03:43:04;19.30;43.70
2749;DHT22;1382;52.142;11.618;2022-09-01T03:45:32;19.40;43.40
2749;DHT22;1382;52.142;11.618;2022-09-01T03:47:58;19.40;43.20
2749;DHT22;1382;52.142;11.618;2022-09-01T03:50:25;19.40;43.30
2749;DHT22;1382;52.142;11.618;2022-09-01T03:52:55;19.40;43.80
2749;DHT22;1382;52.142;11.618;2022-09-01T03:55:24;19.40;43.40
2749;DHT22;1382;52.142;11.618;2022-09-01T03:57:53;19.40;43.30
2749;DHT22;1382;52.142;11.618;2022-09-01T04:00:24;19.50;44.20
2749;DHT22;1382;52.142;11.618;2022-09-01T04:02:55;19.50;43.50
2749;DHT22;1382;52.142;11.618;2022-09-01T04:05:23;19.50;43.80
2749;DHT22;1382;52.142;11.618;2022-09-01T04:07:50;19.50;43.60
2749;DHT22;1382;52.142;11.618;2022-09-01T04:10:17;19.50;43.50
2749;DHT22;1382;52.142;11.618;2022-09-01T04:12:44;19.50;43.30
2749;DHT22;1382;52.142;11.618;2022-09-01T04:15:13;19.50;43.10
2749;DHT22;1382;52.142;11.618;2022-09-01T04:17:41;19.50;42.90
2749;DHT22;1382;52.142;11.618;2022-09-01T04:20:08;19.60;43.30
2749;DHT22;1382;52.142;11.618;2022-09-01T04:22:35;19.50;43.00
2749;DHT22;1382;52.142;11.618;2022-09-01T04:25:02;19.70;43.10
2749;DHT22;1382;52.142;11.618;2022-09-01T04:27:29;19.60;42.90
2749;DHT22;1382;52.142;11.618;2022-09-01T04:29:56;19.60;43.10
2749;DHT22;1382;52.142;11.618;2022-09-01T04:32:23;19.70;42.90
2749;DHT22;1382;52.142;11.618;2022-09-01T04:34:51;19.60;42.70
2749;DHT22;1382;52.142;11.618;2022-09-01T04:37:20;19.70;43.00
2749;DHT22;1382;52.142;11.618;2022-09-01T04:39:51;19.70;43.10
2749;DHT22;1382;52.142;11.618;2022-09-01T04:42:23;19.70;43.20
2749;DHT22;1382;52.142;11.618;2022-09-01T04:44:52;19.70;43.10
2749;DHT22;1382;52.142;11.618;2022-09-01T04:47:18;19.70;42.80
2749;DHT22;1382;52.142;11.618;2022-09-01T04:49:46;19.70;42.50
2749;DHT22;1382;52.142;11.618;2022-09-01T04:52:14;19.70;42.60
2749;DHT22;1382;52.142;11.618;2022-09-01T04:54:41;19.70;42.60
2749;DHT22;1382;52.142;11.618;2022-09-01T04:57:07;19.80;42.60
2749;DHT22;1382;52.142;11.618;2022-09-01T04:59:34;19.90;42.80
2749;DHT22;1382;52.142;11.618;2022-09-01T05:02:01;19.80;42.50
2749;DHT22;1382;52.142;11.618;2022-09-01T05:04:31;19.80;42.50
2749;DHT22;1382;52.142;11.618;2022-09-01T05:06:58;19.80;43.20
2749;DHT22;1382;52.142;11.618;2022-09-01T05:09:28;19.80;42.70
2749;DHT22;1382;52.142;11.618;2022-09-01T05:11:56;19.80;42.80
2749;DHT22;1382;52.142;11.618;2022-09-01T05:14:23;19.80;42.50
2749;DHT22;1382;52.142;11.618;2022-09-01T05:16:51;19.80;42.60
2749;DHT22;1382;52.142;11.618;2022-09-01T05:19:21;19.80;42.60
2749;DHT22;1382;52.142;11.618;2022-09-01T05:21:48;19.80;42.50
2749;DHT22;1382;52.142;11.618;2022-09-01T05:24:16;19.80;42.40
2749;DHT22;1382;52.142;11.618;2022-09-01T05:26:45;19.90;42.70
2749;DHT22;1382;52.142;11.618;2022-09-01T05:29:12;19.90;42.70
2749;DHT22;1382;52.142;11.618;2022-09-01T05:31:41;19.90;42.70
2749;DHT22;1382;52.142;11.618;2022-09-01T05:34:08;19.90;42.90
2749;DHT22;1382;52.142;11.618;2022-09-01T05:36:37;19.90;42.70
2749;DHT22;1382;52.142;11.618;2022-09-01T05:39:06;19.90;42.70
2749;DHT22;1382;52.142;11.618;2022-09-01T05:41:33;19.90;42.50
2749;DHT22;1382;52.142;11.618;2022-09-01T05:44:03;19.90;42.50
2749;DHT22;1382;52.142;11.618;2022-09-01T05:46:30;20.00;42.50
2749;DHT22;1382;52.142;11.618;2022-09-01T05:48:57;20.00;42.70
2749;DHT22;1382;52.142;11.618;2022-09-01T05:51:26;20.10;42.80
2749;DHT22;1382;52.142;11.618;2022-09-01T05:54:10;20.00;42.90
2749;DHT22;1382;52.142;11.618;2022-09-01T05:56:38;20.00;43.00
2749;DHT22;1382;52.142;11.618;2022-09-01T05:59:11;20.00;43.60
2749;DHT22;1382;52.142;11.618;2022-09-01T06:01:53;20.00;43.50
2749;DHT22;1382;52.142;11.618;2022-09-01T06:04:21;20.10;44.10
2749;DHT22;1382;52.142;11.618;2022-09-01T06:06:49;20.10;44.10
2749;DHT22;1382;52.142;11.618;2022-09-01T06:09:36;20.10;44.30
2749;DHT22;1382;52.142;11.618;2022-09-01T06:13:08;20.20;44.60
2749;DHT22;1382;52.142;11.618;2022-09-01T06:14:58;20.30;44.80
2749;DHT22;1382;52.142;11.618;2022-09-01T06:17:26;20.40;44.80
2749;DHT22;1382;52.142;11.618;2022-09-01T06:19:54;20.50;44.50
2749;DHT22;1382;52.142;11.618;2022-09-01T06:22:21;20.50;44.70
2749;DHT22;1382;52.142;11.618;2022-09-01T06:24:48;20.60;44.80
2749;DHT22;1382;52.142;11.618;2022-09-01T06:27:26;20.60;44.70
2749;DHT22;1382;52.142;11.618;2022-09-01T06:29:53;20.70;44.80
2749;DHT22;1382;52.142;11.618;2022-09-01T06:32:21;20.80;44.50
2749;DHT22;1382;52.142;11.618;2022-09-01T06:34:48;20.90;44.60
2749;DHT22;1382;52.142;11.618;2022-09-01T06:37:15;21.00;44.60
2749;DHT22;1382;52.142;11.618;2022-09-01T06:39:41;21.10;44.70
2749;DHT22;1382;52.142;11.618;2022-09-01T06:42:08;21.10;44.70
2749;DHT22;1382;52.142;11.618;2022-09-01T06:44:35;21.20;44.60
2749;DHT22;1382;52.142;11.618;2022-09-01T06:47:06;21.30;44.60
2749;DHT22;1382;52.142;11.618;2022-09-01T06:49:35;21.40;44.60
2749;DHT22;1382;52.142;11.618;2022-09-01T06:52:02;21.50;44.40
2749;DHT22;1382;52.142;11.618;2022-09-01T06:54:30;21.60;44.30
2749;DHT22;1382;52.142;11.618;2022-09-01T06:56:57;21.60;44.10
2749;DHT22;1382;52.142;11.618;2022-09-01T06:59:27;21.70;44.20
2749;DHT22;1382;52.142;11.618;2022-09-01T07:02:01;21.80;44.20
2749;DHT22;1382;52.142;11.618;2022-09-01T07:04:49;22.00;44.10
2749;DHT22;1382;52.142;11.618;2022-09-01T07:07:16;22.00;43.90
2749;DHT22;1382;52.142;11.618;2022-09-01T07:10:04;22.10;43.80
2749;DHT22;1382;52.142;11.618;2022-09-01T07:12:47;22.20;43.60
2749;DHT22;1382;52.142;11.618;2022-09-01T07:15:37;22.20;43.30
2749;DHT22;1382;52.142;11.618;2022-09-01T07:18:25;22.40;43.00
2749;DHT22;1382;52.142;11.618;2022-09-01T07:20:54;22.40;42.50
2749;DHT22;1382;52.142;11.618;2022-09-01T07:23:33;22.70;42.60
2749;DHT22;1382;52.142;11.618;2022-09-01T07:26:21;22.60;42.20
2749;DHT22;1382;52.142;11.618;2022-09-01T07:28:52;22.70;42.40
2749;DHT22;1382;52.142;11.618;2022-09-01T07:31:28;22.80;42.40
2749;DHT22;1382;52.142;11.618;2022-09-01T07:34:15;22.90;42.10
2749;DHT22;1382;52.142;11.618;2022-09-01T07:37:03;23.00;42.10
2749;DHT22;1382;52.142;11.618;2022-09-01T07:39:50;23.10;41.60
2749;DHT22;1382;52.142;11.618;2022-09-01T07:42:18;23.20;41.90
2749;DHT22;1382;52.142;11.618;2022-09-01T07:45:06;23.30;41.70
2749;DHT22;1382;52.142;11.618;2022-09-01T07:47:54;23.40;41.60
2749;DHT22;1382;52.142;11.618;2022-09-01T07:50:21;23.50;41.40
2749;DHT22;1382;52.142;11.618;2022-09-01T07:53:09;23.60;41.10
2749;DHT22;1382;52.142;11.618;2022-09-01T07:55:38;23.70;40.70
2749;DHT22;1382;52.142;11.618;2022-09-01T07:58:05;23.80;40.60
2749;DHT22;1382;52.142;11.618;2022-09-01T08:00:32;23.90;41.40
2749;DHT22;1382;52.142;11.618;2022-09-01T08:02:59;24.00;40.90
2749;DHT22;1382;52.142;11.618;2022-09-01T08:05:25;24.10;40.40
2749;DHT22;1382;52.142;11.618;2022-09-01T08:07:53;24.20;40.40
2749;DHT22;1382;52.142;11.618;2022-09-01T08:10:21;24.30;40.10
2749;DHT22;1382;52.142;11.618;2022-09-01T08:12:48;24.30;39.90
2749;DHT22;1382;52.142;11.618;2022-09-01T08:15:23;24.40;39.90
2749;DHT22;1382;52.142;11.618;2022-09-01T08:18:10;24.50;39.80
2749;DHT22;1382;52.142;11.618;2022-09-01T08:20:42;24.60;39.80
2749;DHT22;1382;52.142;11.618;2022-09-01T08:23:10;24.60;39.80
2749;DHT22;1382;52.142;11.618;2022-09-01T08:25:39;24.70;39.90
2749;DHT22;1382;52.142;11.618;2022-09-01T08:28:06;24.80;39.60
2749;DHT22;1382;52.142;11.618;2022-09-01T08:30:33;24.90;39.80
2749;DHT22;1382;52.142;11.618;2022-09-01T08:33:01;25.00;39.50
2749;DHT22;1382;52.142;11.618;2022-09-01T08:35:37;25.20;39.10
2749;DHT22;1382;52.142;11.618;2022-09-01T08:38:04;25.20;39.10
2749;DHT22;1382;52.142;11.618;2022-09-01T08:40:31;25.30;39.10
2749;DHT22;1382;52.142;11.618;2022-09-01T08:43:08;25.50;39.00
2749;DHT22;1382;52.142;11.618;2022-09-01T08:45:48;25.60;38.20
2749;DHT22;1382;52.142;11.618;2022-09-01T08:48:19;25.60;38.60
2749;DHT22;1382;52.142;11.618;2022-09-01T08:51:13;25.70;38.30
2749;DHT22;1382;52.142;11.618;2022-09-01T08:53:51;25.90;38.50
2749;DHT22;1382;52.142;11.618;2022-09-01T08:56:22;25.90;37.40
2749;DHT22;1382;52.142;11.618;2022-09-01T08:58:51;26.00;37.50
2749;DHT22;1382;52.142;11.618;2022-09-01T09:01:26;26.10;37.40
2749;DHT22;1382;52.142;11.618;2022-09-01T09:04:11;26.20;36.60
2749;DHT22;1382;52.142;11.618;2022-09-01T09:06:45;26.20;36.50
2749;DHT22;1382;52.142;11.618;2022-09-01T09:09:13;26.30;36.00
2749;DHT22;1382;52.142;11.618;2022-09-01T09:11:50;26.40;36.20
2749;DHT22;1382;52.142;11.618;2022-09-01T09:14:31;26.50;35.10
2749;DHT22;1382;52.142;11.618;2022-09-01T09:16:59;26.50;35.20
2749;DHT22;1382;52.142;11.618;2022-09-01T09:19:29;26.50;35.90
2749;DHT22;1382;52.142;11.618;2022-09-01T09:21:58;26.60;35.40
2749;DHT22;1382;52.142;11.618;2022-09-01T09:24:28;26.70;35.80
2749;DHT22;1382;52.142;11.618;2022-09-01T09:27:05;26.80;35.40
2749;DHT22;1382;52.142;11.618;2022-09-01T09:29:34;26.80;35.70
2749;DHT22;1382;52.142;11.618;2022-09-01T09:32:03;26.90;35.10
2749;DHT22;1382;52.142;11.618;2022-09-01T09:34:33;27.00;35.20
2749;DHT22;1382;52.142;11.618;2022-09-01T09:37:15;27.10;35.00
2749;DHT22;1382;52.142;11.618;2022-09-01T09:39:42;27.10;34.80
2749;DHT22;1382;52.142;11.618;2022-09-01T09:42:12;27.20;35.30
2749;DHT22;1382;52.142;11.618;2022-09-01T09:44:44;27.30;34.80
2749;DHT22;1382;52.142;11.618;2022-09-01T09:47:33;27.30;34.80
2749;DHT22;1382;52.142;11.618;2022-09-01T09:50:17;27.50;35.70
2749;DHT22;1382;52.142;11.618;2022-09-01T09:52:45;27.50;33.50
2749;DHT22;1382;52.142;11.618;2022-09-01T09:55:23;27.50;34.50
2749;DHT22;1382;52.142;11.618;2022-09-01T09:57:52;27.60;34.20
2749;DHT22;1382;52.142;11.618;2022-09-01T10:00:23;27.60;33.90
2749;DHT22;1382;52.142;11.618;2022-09-01T10:02:55;27.60;33.60
2749;DHT22;1382;52.142;11.618;2022-09-01T10:05:35;27.60;32.00
2749;DHT22;1382;52.142;11.618;2022-09-01T10:08:04;27.70;32.30
2749;DHT22;1382;52.142;11.618;2022-09-01T10:10:38;27.80;33.30
2749;DHT22;1382;52.142;11.618;2022-09-01T10:13:08;27.90;32.90
2749;DHT22;1382;52.142;11.618;2022-09-01T10:15:38;28.00;32.80
2749;DHT22;1382;52.142;11.618;2022-09-01T10:18:08;28.10;32.20
2749;DHT22;1382;52.142;11.618;2022-09-01T10:20:57;28.20;31.80
2749;DHT22;1382;52.142;11.618;2022-09-01T10:23:27;28.30;31.80
2749;DHT22;1382;52.142;11.618;2022-09-01T10:26:01;28.30;31.90
2749;DHT22;1382;52.142;11.618;2022-09-01T10:28:32;28.40;32.10
2749;DHT22;1382;52.142;11.618;2022-09-01T10:31:04;28.40;31.10
2749;DHT22;1382;52.142;11.618;2022-09-01T10:33:34;28.40;31.40
2749;DHT22;1382;52.142;11.618;2022-09-01T10:36:05;28.50;32.00
2749;DHT22;1382;52.142;11.618;2022-09-01T10:38:33;28.60;30.30
2749;DHT22;1382;52.142;11.618;2022-09-01T10:41:00;28.70;31.30
2749;DHT22;1382;52.142;11.618;2022-09-01T10:43:37;28.70;31.10
2749;DHT22;1382;52.142;11.618;2022-09-01T10:55:22;28.90;30.00
2749;DHT22;1382;52.142;11.618;2022-09-01T10:57:59;28.80;30.00
2749;DHT22;1382;52.142;11.618;2022-09-01T11:00:52;28.90;30.10
2749;DHT22;1382;52.142;11.618;2022-09-01T11:04:01;29.00;30.40
2749;DHT22;1382;52.142;11.618;2022-09-01T11:06:53;29.10;31.30
2749;DHT22;1382;52.142;11.618;2022-09-01T11:09:41;29.20;30.70
2749;DHT22;1382;52.142;11.618;2022-09-01T11:12:39;29.20;30.70
2749;DHT22;1382;52.142;11.618;2022-09-01T11:15:34;29.40;30.60
2749;DHT22;1382;52.142;11.618;2022-09-01T11:18:02;29.40;31.30
2749;DHT22;1382;52.142;11.618;2022-09-01T11:20:38;29.40;31.70
2749;DHT22;1382;52.142;11.618;2022-09-01T11:23:07;29.60;31.50
2749;DHT22;1382;52.142;11.618;2022-09-01T11:25:40;29.60;30.90
2749;DHT22;1382;52.142;11.618;2022-09-01T11:30:52;29.70;30.70
2749;DHT22;1382;52.142;11.618;2022-09-01T11:33:32;29.70;30.30
2749;DHT22;1382;52.142;11.618;2022-09-01T11:36:03;29.70;30.10
2749;DHT22;1382;52.142;11.618;2022-09-01T11:38:35;29.70;30.30
2749;DHT22;1382;52.142;11.618;2022-09-01T11:41:03;29.60;30.00
2749;DHT22;1382;52.142;11.618;2022-09-01T11:43:30;29.60;29.90
2749;DHT22;1382;52.142;11.618;2022-09-01T11:46:04;29.60;29.90
2749;DHT22;1382;52.142;11.618;2022-09-01T11:48:38;29.50;29.90
2749;DHT22;1382;52.142;11.618;2022-09-01T11:51:06;29.40;29.70
2749;DHT22;1382;52.142;11.618;2022-09-01T11:53:41;29.40;30.30
2749;DHT22;1382;52.142;11.618;2022-09-01T11:56:14;29.30;29.40
2749;DHT22;1382;52.142;11.618;2022-09-01T11:58:41;29.30;29.90
2749;DHT22;1382;52.142;11.618;2022-09-01T12:01:14;29.20;30.00
2749;DHT22;1382;52.142;11.618;2022-09-01T12:03:41;29.20;30.00
2749;DHT22;1382;52.142;11.618;2022-09-01T12:06:10;29.20;29.80
2749;DHT22;1382;52.142;11.618;2022-09-01T12:08:40;29.20;30.10
2749;DHT22;1382;52.142;11.618;2022-09-01T12:11:10;29.20;29.60
2749;DHT22;1382;52.142;11.618;2022-09-01T12:13:39;29.20;29.70
2749;DHT22;1382;52.142;11.618;2022-09-01T12:16:08;29.10;29.60
2749;DHT22;1382;52.142;11.618;2022-09-01T12:18:46;29.10;29.50
2749;DHT22;1382;52.142;11.618;2022-09-01T12:21:20;29.10;29.70
2749;DHT22;1382;52.142;11.618;2022-09-01T12:23:48;29.10;29.90
2749;DHT22;1382;52.142;11.618;2022-09-01T12:26:18;29.10;29.90
2749;DHT22;1382;52.142;11.618;2022-09-01T12:28:46;29.20;29.70
2749;DHT22;1382;52.142;11.618;2022-09-01T12:31:16;29.20;30.00
2749;DHT22;1382;52.142;11.618;2022-09-01T12:33:45;29.20;29.80
2749;DHT22;1382;52.142;11.618;2022-09-01T12:36:22;29.10;29.60
2749;DHT22;1382;52.142;11.618;2022-09-01T12:38:50;29.20;29.80
2749;DHT22;1382;52.142;11.618;2022-09-01T12:41:25;29.30;30.00
2749;DHT22;1382;52.142;11.618;2022-09-01T12:43:54;29.20;29.90
2749;DHT22;1382;52.142;11.618;2022-09-01T12:46:41;29.30;29.20
2749;DHT22;1382;52.142;11.618;2022-09-01T12:49:21;29.20;29.80
2749;DHT22;1382;52.142;11.618;2022-09-01T12:51:49;29.20;29.60
2749;DHT22;1382;52.142;11.618;2022-09-01T12:54:23;29.10;29.70
2749;DHT22;1382;52.142;11.618;2022-09-01T12:56:50;29.30;29.10
2749;DHT22;1382;52.142;11.618;2022-09-01T12:59:21;29.20;30.00
2749;DHT22;1382;52.142;11.618;2022-09-01T13:02:25;29.20;30.00
2749;DHT22;1382;52.142;11.618;2022-09-01T13:04:52;29.20;29.10
2749;DHT22;1382;52.142;11.618;2022-09-01T13:07:20;29.10;29.40
2749;DHT22;1382;52.142;11.618;2022-09-01T13:09:47;29.00;29.60
2749;DHT22;1382;52.142;11.618;2022-09-01T13:12:18;29.00;29.40
2749;DHT22;1382;52.142;11.618;2022-09-01T13:14:45;29.00;29.00
2749;DHT22;1382;52.142;11.618;2022-09-01T13:17:12;29.00;29.40
2749;DHT22;1382;52.142;11.618;2022-09-01T13:20:11;29.00;29.50
2749;DHT22;1382;52.142;11.618;2022-09-01T13:22:37;29.00;29.50
2749;DHT22;1382;52.142;11.618;2022-09-01T13:25:04;28.80;29.30
2749;DHT22;1382;52.142;11.618;2022-09-01T13:27:31;28.90;29.90
2749;DHT22;1382;52.142;11.618;2022-09-01T13:29:58;28.80;29.20
2749;DHT22;1382;52.142;11.618;2022-09-01T13:32:25;28.70;29.30
2749;DHT22;1382;52.142;11.618;2022-09-01T13:34:52;28.70;29.30
2749;DHT22;1382;52.142;11.618;2022-09-01T13:37:20;28.60;29.60
2749;DHT22;1382;52.142;11.618;2022-09-01T13:39:49;28.70;29.40
2749;DHT22;1382;52.142;11.618;2022-09-01T13:42:16;28.60;29.70
2749;DHT22;1382;52.142;11.618;2022-09-01T13:44:43;28.60;29.50
2749;DHT22;1382;52.142;11.618;2022-09-01T13:47:12;28.60;29.30
2749;DHT22;1382;52.142;11.618;2022-09-01T13:49:56;28.50;29.40
2749;DHT22;1382;52.142;11.618;2022-09-01T13:52:43;28.50;29.00
2749;DHT22;1382;52.142;11.618;2022-09-01T13:55:13;28.40;29.30
2749;DHT22;1382;52.142;11.618;2022-09-01T13:57:40;28.40;28.70
2749;DHT22;1382;52.142;11.618;2022-09-01T14:00:09;28.40;28.50
2749;DHT22;1382;52.142;11.618;2022-09-01T14:02:38;28.30;29.40
2749;DHT22;1382;52.142;11.618;2022-09-01T14:05:06;28.40;29.40
2749;DHT22;1382;52.142;11.618;2022-09-01T14:07:32;28.30;29.30
2749;DHT22;1382;52.142;11.618;2022-09-01T14:09:59;28.30;30.60
2749;DHT22;1382;52.142;11.618;2022-09-01T14:12:28;28.30;30.30
2749;DHT22;1382;52.142;11.618;2022-09-01T14:14:54;28.40;30.00
2749;DHT22;1382;52.142;11.618;2022-09-01T14:17:43;28.50;30.10
2749;DHT22;1382;52.142;11.618;2022-09-01T14:20:12;28.60;30.30
2749;DHT22;1382;52.142;11.618;2022-09-01T14:22:40;28.70;30.00
2749;DHT22;1382;52.142;11.618;2022-09-01T14:25:08;28.80;30.30
2749;DHT22;1382;52.142;11.618;2022-09-01T14:27:38;28.90;29.70
2749;DHT22;1382;52.142;11.618;2022-09-01T14:30:06;29.00;29.70
2749;DHT22;1382;52.142;11.618;2022-09-01T14:32:34;29.20;29.70
2749;DHT22;1382;52.142;11.618;2022-09-01T14:35:01;29.20;28.80
2749;DHT22;1382;52.142;11.618;2022-09-01T14:37:28;29.30;28.80
2749;DHT22;1382;52.142;11.618;2022-09-01T14:39:56;29.40;28.60
2749;DHT22;1382;52.142;11.618;2022-09-01T14:42:24;29.40;28.10
2749;DHT22;1382;52.142;11.618;2022-09-01T14:44:52;29.40;28.10
2749;DHT22;1382;52.142;11.618;2022-09-01T14:47:19;29.40;28.30
2749;DHT22;1382;52.142;11.618;2022-09-01T14:49:46;29.40;28.20
2749;DHT22;1382;52.142;11.618;2022-09-01T14:52:13;29.40;28.00
2749;DHT22;1382;52.142;11.618;2022-09-01T14:54:40;29.30;27.80
2749;DHT22;1382;52.142;11.618;2022-09-01T14:57:07;29.20;27.30
2749;DHT22;1382;52.142;11.618;2022-09-01T14:59:55;29.20;28.50
2749;DHT22;1382;52.142;11.618;2022-09-01T15:02:22;29.30;28.50
2749;DHT22;1382;52.142;11.618;2022-09-01T15:04:49;29.20;28.40
2749;DHT22;1382;52.142;11.618;2022-09-01T15:07:16;29.10;28.10
2749;DHT22;1382;52.142;11.618;2022-09-01T15:09:43;29.00;28.40
2749;DHT22;1382;52.142;11.618;2022-09-01T15:12:10;29.00;28.80
2749;DHT22;1382;52.142;11.618;2022-09-01T15:14:37;29.00;28.60
2749;DHT22;1382;52.142;11.618;2022-09-01T15:17:05;29.00;28.60
2749;DHT22;1382;52.142;11.618;2022-09-01T15:19:32;28.90;28.60
2749;DHT22;1382;52.142;11.618;2022-09-01T15:22:00;28.80;28.40
2749;DHT22;1382;52.142;11.618;2022-09-01T15:24:26;28.80;28.30
2749;DHT22;1382;52.142;11.618;2022-09-01T15:26:53;28.80;28.50
2749;DHT22;1382;52.142;11.618;2022-09-01T15:29:20;28.80;28.50
2749;DHT22;1382;52.142;11.618;2022-09-01T15:31:47;28.80;28.40
2749;DHT22;1382;52.142;11.618;2022-09-01T15:34:15;28.80;28.10
2749;DHT22;1382;52.142;11.618;2022-09-01T15:36:42;28.80;28.30
2749;DHT22;1382;52.142;11.618;2022-09-01T15:39:09;28.80;28.30
2749;DHT22;1382;52.142;11.618;2022-09-01T15:41:36;28.80;28.60
2749;DHT22;1382;52.142;11.618;2022-09-01T15:44:05;28.70;28.40
2749;DHT22;1382;52.142;11.618;2022-09-01T15:46:33;28.80;28.50
2749;DHT22;1382;52.142;11.618;2022-09-01T15:49:02;28.80;28.50
2749;DHT22;1382;52.142;11.618;2022-09-01T15:51:33;28.70;28.50
2749;DHT22;1382;52.142;11.618;2022-09-01T15:54:02;28.70;28.70
2749;DHT22;1382;52.142;11.618;2022-09-01T15:56:30;28.70;28.50
2749;DHT22;1382;52.142;11.618;2022-09-01T15:58:57;28.70;28.50
2749;DHT22;1382;52.142;11.618;2022-09-01T16:01:28;28.60;28.30
2749;DHT22;1382;52.142;11.618;2022-09-01T16:03:56;28.60;28.60
2749;DHT22;1382;52.142;11.618;2022-09-01T16:06:23;28.50;28.70
2749;DHT22;1382;52.142;11.618;2022-09-01T16:08:52;28.50;28.40
2749;DHT22;1382;52.142;11.618;2022-09-01T16:11:20;28.50;28.40
2749;DHT22;1382;52.142;11.618;2022-09-01T16:13:46;28.40;28.40
2749;DHT22;1382;52.142;11.618;2022-09-01T16:16:28;28.30;28.40
2749;DHT22;1382;52.142;11.618;2022-09-01T16:18:59;28.20;28.80